RYR86DZ EBCI-LFMU
Flight info
| Callsign | RYR86DZ |
|---|---|
| Flight time | 1h 17m |
| Altitude | 31000 |
| Route | CIV N872 LESDO DCT KOVIN DCT DUCRA/N0455F330 UM728 RESMI UN857 DISAK DCT DIRMO DCT ETAMO DCT ADEKA DCT MOKDI DCT MEN/N0388F190 J27 AFRIC |
| Aircraft | B738/M-SDE2E3FGHIRWXY/LB1 |
Departure
| Time | 2026-04-27 07:39 |
|---|---|
| Airport | Brussels South Charleroi Airport (EBCI) |
Arrival
| Time | 2026-04-27 08:56 |
|---|---|
| Airport | Béziers Vias airport (LFMU) |
| Time | Latitude | Longitude | Altitude | Speed | Heading |
|---|---|---|---|---|---|
| 2026-04-27 07:09 | 50.46718 | 4.46581 | 612 ft | 0 kts | 335° |
| 2026-04-27 07:31 | 50.46703 | 4.46592 | 629 ft | 2 kts | 336° |
| 2026-04-27 07:31 | 50.46688 | 4.46602 | 623 ft | 2 kts | 332° |
| 2026-04-27 07:31 | 50.46679 | 4.46620 | 624 ft | 2 kts | 274° |
| 2026-04-27 07:31 | 50.46680 | 4.46646 | 616 ft | 2 kts | 254° |
| 2026-04-27 07:32 | 50.46684 | 4.46662 | 623 ft | 1 kts | 248° |
| 2026-04-27 07:32 | 50.46684 | 4.46664 | 627 ft | 0 kts | 247° |
| 2026-04-27 07:35 | 50.46679 | 4.46648 | 615 ft | 6 kts | 245° |
| 2026-04-27 07:35 | 50.46645 | 4.46545 | 616 ft | 14 kts | 224° |
| 2026-04-27 07:35 | 50.46559 | 4.46556 | 624 ft | 12 kts | 185° |
| 2026-04-27 07:36 | 50.46506 | 4.46454 | 625 ft | 14 kts | 245° |
| 2026-04-27 07:36 | 50.46445 | 4.46243 | 619 ft | 27 kts | 245° |
| 2026-04-27 07:36 | 50.46357 | 4.45940 | 616 ft | 31 kts | 245° |
| 2026-04-27 07:36 | 50.46273 | 4.45651 | 618 ft | 27 kts | 245° |
| 2026-04-27 07:37 | 50.46197 | 4.45388 | 612 ft | 26 kts | 245° |
| 2026-04-27 07:37 | 50.46125 | 4.45141 | 614 ft | 24 kts | 245° |
| 2026-04-27 07:37 | 50.46059 | 4.44914 | 623 ft | 23 kts | 245° |
| 2026-04-27 07:37 | 50.45996 | 4.44776 | 612 ft | 13 kts | 202° |
| 2026-04-27 07:38 | 50.45912 | 4.44802 | 618 ft | 13 kts | 148° |
| 2026-04-27 07:38 | 50.45887 | 4.44940 | 612 ft | 20 kts | 71° |
| 2026-04-27 07:38 | 50.46023 | 4.45413 | 623 ft | 86 kts | 65° |
| 2026-04-27 07:38 | 50.46372 | 4.46615 | 626 ft | 152 kts | 65° |
| 2026-04-27 07:39 | 50.46823 | 4.48170 | 1390 ft | 156 kts | 64° |
| 2026-04-27 07:39 | 50.47479 | 4.49534 | 2369 ft | 156 kts | 46° |
| 2026-04-27 07:39 | 50.48236 | 4.50847 | 3057 ft | 175 kts | 51° |
| 2026-04-27 07:39 | 50.49095 | 4.52424 | 3453 ft | 207 kts | 50° |
| 2026-04-27 07:40 | 50.50106 | 4.54232 | 3703 ft | 233 kts | 49° |
| 2026-04-27 07:40 | 50.51214 | 4.56195 | 4164 ft | 250 kts | 49° |
| 2026-04-27 07:40 | 50.52420 | 4.58323 | 4757 ft | 266 kts | 48° |
| 2026-04-27 07:40 | 50.53847 | 4.60196 | 5601 ft | 271 kts | 24° |
| 2026-04-27 07:41 | 50.54749 | 4.60635 | 5989 ft | 276 kts | 8° |
| 2026-04-27 07:41 | 50.56564 | 4.60364 | 6937 ft | 275 kts | 340° |
| 2026-04-27 07:41 | 50.58173 | 4.58755 | 7822 ft | 277 kts | 313° |
| 2026-04-27 07:42 | 50.58917 | 4.57127 | 8420 ft | 278 kts | 296° |
| 2026-04-27 07:42 | 50.59386 | 4.53208 | 9664 ft | 279 kts | 269° |
| 2026-04-27 07:42 | 50.59303 | 4.50142 | 10495 ft | 283 kts | 268° |
| 2026-04-27 07:42 | 50.59203 | 4.46929 | 10828 ft | 307 kts | 268° |
| 2026-04-27 07:43 | 50.59100 | 4.43436 | 11025 ft | 332 kts | 268° |
| 2026-04-27 07:43 | 50.59029 | 4.40943 | 11207 ft | 345 kts | 268° |
| 2026-04-27 07:43 | 50.58922 | 4.37111 | 11845 ft | 353 kts | 268° |
| 2026-04-27 07:43 | 50.58817 | 4.33241 | 12673 ft | 356 kts | 268° |
| 2026-04-27 07:44 | 50.58713 | 4.29373 | 13500 ft | 358 kts | 268° |
| 2026-04-27 07:44 | 50.58605 | 4.25437 | 14330 ft | 361 kts | 268° |
| 2026-04-27 07:44 | 50.58498 | 4.21470 | 15128 ft | 364 kts | 268° |
| 2026-04-27 07:44 | 50.58389 | 4.17481 | 15955 ft | 366 kts | 268° |
| 2026-04-27 07:45 | 50.58279 | 4.13471 | 16786 ft | 368 kts | 268° |
| 2026-04-27 07:45 | 50.58166 | 4.09429 | 17598 ft | 370 kts | 268° |
| 2026-04-27 07:45 | 50.58051 | 4.05374 | 18372 ft | 373 kts | 268° |
| 2026-04-27 07:45 | 50.57934 | 4.01273 | 19067 ft | 376 kts | 268° |
| 2026-04-27 07:46 | 50.57814 | 3.97134 | 19700 ft | 379 kts | 268° |
| 2026-04-27 07:46 | 50.57691 | 3.92969 | 20319 ft | 383 kts | 268° |
| 2026-04-27 07:46 | 50.57354 | 3.88797 | 20896 ft | 388 kts | 255° |
| 2026-04-27 07:46 | 50.56189 | 3.84939 | 21511 ft | 395 kts | 237° |
| 2026-04-27 07:47 | 50.54347 | 3.81703 | 22136 ft | 402 kts | 223° |
| 2026-04-27 07:47 | 50.51965 | 3.79393 | 22697 ft | 412 kts | 208° |
| 2026-04-27 07:47 | 50.49331 | 3.77585 | 23264 ft | 416 kts | 206° |
| 2026-04-27 07:47 | 50.46637 | 3.75831 | 23792 ft | 420 kts | 206° |
| 2026-04-27 07:48 | 50.43924 | 3.74062 | 24244 ft | 423 kts | 206° |
| 2026-04-27 07:48 | 50.41196 | 3.72250 | 24737 ft | 425 kts | 206° |
| 2026-04-27 07:48 | 50.38603 | 3.70498 | 25217 ft | 426 kts | 207° |
| 2026-04-27 07:48 | 50.35972 | 3.68710 | 25675 ft | 428 kts | 207° |
| 2026-04-27 07:49 | 50.33242 | 3.66854 | 26128 ft | 430 kts | 207° |
| 2026-04-27 07:49 | 50.30488 | 3.64990 | 26572 ft | 432 kts | 207° |
| 2026-04-27 07:49 | 50.27725 | 3.63125 | 26993 ft | 434 kts | 207° |
| 2026-04-27 07:49 | 50.24979 | 3.61274 | 27406 ft | 436 kts | 207° |
| 2026-04-27 07:50 | 50.22188 | 3.59396 | 27822 ft | 438 kts | 207° |
| 2026-04-27 07:50 | 50.19383 | 3.57510 | 28229 ft | 440 kts | 207° |
| 2026-04-27 07:50 | 50.16565 | 3.55617 | 28619 ft | 442 kts | 207° |
| 2026-04-27 07:50 | 50.13735 | 3.53719 | 29048 ft | 442 kts | 207° |
| 2026-04-27 07:51 | 50.10911 | 3.51829 | 29621 ft | 440 kts | 207° |
| 2026-04-27 07:51 | 50.08109 | 3.49956 | 30269 ft | 436 kts | 207° |
| 2026-04-27 07:51 | 50.05332 | 3.48102 | 30774 ft | 433 kts | 207° |
| 2026-04-27 07:51 | 50.02558 | 3.46251 | 31170 ft | 433 kts | 207° |
| 2026-04-27 07:52 | 49.99772 | 3.44391 | 31248 ft | 437 kts | 207° |
| 2026-04-27 07:52 | 49.94179 | 3.40668 | 31253 ft | 435 kts | 207° |
| 2026-04-27 07:53 | 49.88643 | 3.36994 | 31262 ft | 432 kts | 207° |
| 2026-04-27 07:53 | 49.83141 | 3.33348 | 31262 ft | 433 kts | 207° |
| 2026-04-27 07:54 | 49.77590 | 3.29679 | 31266 ft | 433 kts | 207° |
| 2026-04-27 07:54 | 49.72042 | 3.26011 | 31260 ft | 434 kts | 207° |
| 2026-04-27 07:55 | 49.66444 | 3.22314 | 31453 ft | 441 kts | 207° |
| 2026-04-27 07:55 | 49.63615 | 3.20450 | 31871 ft | 440 kts | 207° |
| 2026-04-27 07:55 | 49.60812 | 3.18609 | 32365 ft | 437 kts | 207° |
| 2026-04-27 07:55 | 49.58027 | 3.16781 | 32886 ft | 433 kts | 207° |
| 2026-04-27 07:56 | 49.55258 | 3.14963 | 33267 ft | 432 kts | 207° |
| 2026-04-27 07:56 | 49.49690 | 3.11305 | 33258 ft | 436 kts | 208° |
| 2026-04-27 07:57 | 49.44545 | 3.06639 | 33260 ft | 426 kts | 217° |
| 2026-04-27 07:57 | 49.39629 | 3.01560 | 33260 ft | 425 kts | 217° |
| 2026-04-27 07:58 | 49.34736 | 2.96546 | 33256 ft | 426 kts | 217° |
| 2026-04-27 07:58 | 49.29793 | 2.91537 | 33257 ft | 426 kts | 217° |
| 2026-04-27 07:59 | 49.24845 | 2.86549 | 33252 ft | 426 kts | 216° |
| 2026-04-27 07:59 | 49.18366 | 2.80037 | 33242 ft | 427 kts | 216° |
| 2026-04-27 08:00 | 49.13401 | 2.75059 | 33241 ft | 427 kts | 216° |
| 2026-04-27 08:00 | 49.08458 | 2.70115 | 33241 ft | 428 kts | 216° |
| 2026-04-27 08:01 | 49.03533 | 2.65201 | 33241 ft | 428 kts | 216° |
| 2026-04-27 08:01 | 48.98582 | 2.60271 | 33237 ft | 428 kts | 216° |
| 2026-04-27 08:02 | 48.93597 | 2.55321 | 33240 ft | 427 kts | 216° |
| 2026-04-27 08:02 | 48.88621 | 2.50389 | 33239 ft | 427 kts | 216° |
| 2026-04-27 08:03 | 48.83646 | 2.45468 | 33239 ft | 427 kts | 216° |
| 2026-04-27 08:03 | 48.78670 | 2.40556 | 33239 ft | 426 kts | 216° |
| 2026-04-27 08:04 | 48.73696 | 2.35657 | 33240 ft | 426 kts | 216° |
| 2026-04-27 08:04 | 48.68753 | 2.30801 | 33239 ft | 426 kts | 216° |
| 2026-04-27 08:05 | 48.63780 | 2.25925 | 33240 ft | 426 kts | 216° |
| 2026-04-27 08:05 | 48.58916 | 2.21223 | 33237 ft | 426 kts | 212° |
| 2026-04-27 08:06 | 48.53324 | 2.17901 | 33233 ft | 434 kts | 196° |
| 2026-04-27 08:06 | 48.47398 | 2.16062 | 33230 ft | 435 kts | 195° |
| 2026-04-27 08:07 | 48.41478 | 2.14227 | 33226 ft | 435 kts | 196° |
| 2026-04-27 08:07 | 48.35556 | 2.12329 | 33237 ft | 435 kts | 196° |
| 2026-04-27 08:08 | 48.29604 | 2.10565 | 33220 ft | 438 kts | 190° |
| 2026-04-27 08:08 | 48.23495 | 2.10869 | 33235 ft | 447 kts | 175° |
| 2026-04-27 08:09 | 48.17336 | 2.12333 | 33211 ft | 448 kts | 175° |
| 2026-04-27 08:09 | 48.11163 | 2.13479 | 33216 ft | 445 kts | 181° |
| 2026-04-27 08:10 | 48.05009 | 2.13841 | 33214 ft | 444 kts | 182° |
| 2026-04-27 08:10 | 47.98822 | 2.14098 | 33212 ft | 445 kts | 182° |
| 2026-04-27 08:11 | 47.92623 | 2.14410 | 33210 ft | 446 kts | 182° |
| 2026-04-27 08:11 | 47.86420 | 2.14761 | 33211 ft | 446 kts | 182° |
| 2026-04-27 08:12 | 47.80207 | 2.15124 | 33210 ft | 446 kts | 182° |
| 2026-04-27 08:12 | 47.73999 | 2.15485 | 33211 ft | 447 kts | 182° |
| 2026-04-27 08:13 | 47.67819 | 2.15842 | 33208 ft | 447 kts | 182° |
| 2026-04-27 08:13 | 47.61595 | 2.16200 | 33204 ft | 447 kts | 182° |
| 2026-04-27 08:14 | 47.55381 | 2.16557 | 33193 ft | 447 kts | 182° |
| 2026-04-27 08:14 | 47.49163 | 2.16913 | 33197 ft | 447 kts | 182° |
| 2026-04-27 08:15 | 47.42945 | 2.17269 | 33198 ft | 447 kts | 182° |
| 2026-04-27 08:15 | 47.36762 | 2.17621 | 33194 ft | 447 kts | 182° |
| 2026-04-27 08:16 | 47.30545 | 2.17975 | 33199 ft | 447 kts | 182° |
| 2026-04-27 08:16 | 47.24316 | 2.18328 | 33193 ft | 447 kts | 182° |
| 2026-04-27 08:17 | 47.18089 | 2.18681 | 33191 ft | 448 kts | 182° |
| 2026-04-27 08:17 | 47.11861 | 2.19033 | 33190 ft | 448 kts | 181° |
| 2026-04-27 08:18 | 47.05628 | 2.19780 | 33203 ft | 451 kts | 176° |
| 2026-04-27 08:18 | 46.99404 | 2.21154 | 33184 ft | 452 kts | 175° |
| 2026-04-27 08:19 | 46.93194 | 2.22560 | 33184 ft | 452 kts | 175° |
| 2026-04-27 08:19 | 46.87004 | 2.23922 | 33178 ft | 452 kts | 175° |
| 2026-04-27 08:20 | 46.80780 | 2.25265 | 33183 ft | 452 kts | 175° |
| 2026-04-27 08:20 | 46.74553 | 2.26598 | 33177 ft | 453 kts | 175° |
| 2026-04-27 08:21 | 46.68316 | 2.27930 | 33176 ft | 453 kts | 175° |
| 2026-04-27 08:21 | 46.62075 | 2.29261 | 33180 ft | 453 kts | 175° |
| 2026-04-27 08:22 | 46.55822 | 2.30591 | 33178 ft | 454 kts | 175° |
| 2026-04-27 08:22 | 46.49608 | 2.31911 | 33172 ft | 454 kts | 175° |
| 2026-04-27 08:23 | 46.43343 | 2.33238 | 33178 ft | 454 kts | 175° |
| 2026-04-27 08:23 | 46.37091 | 2.34559 | 33177 ft | 455 kts | 175° |
| 2026-04-27 08:24 | 46.30826 | 2.35880 | 33175 ft | 455 kts | 175° |
| 2026-04-27 08:24 | 46.24562 | 2.37197 | 33175 ft | 456 kts | 175° |
| 2026-04-27 08:25 | 46.18278 | 2.38516 | 33171 ft | 456 kts | 175° |
| 2026-04-27 08:25 | 46.12003 | 2.39830 | 33167 ft | 456 kts | 175° |
| 2026-04-27 08:26 | 46.05711 | 2.41145 | 33169 ft | 457 kts | 175° |
| 2026-04-27 08:26 | 45.99411 | 2.42458 | 33169 ft | 457 kts | 174° |
| 2026-04-27 08:27 | 45.93141 | 2.43761 | 33167 ft | 457 kts | 174° |
| 2026-04-27 08:27 | 45.86833 | 2.45070 | 33166 ft | 458 kts | 174° |
| 2026-04-27 08:28 | 45.80532 | 2.46375 | 33168 ft | 458 kts | 174° |
| 2026-04-27 08:28 | 45.74226 | 2.47677 | 33171 ft | 458 kts | 174° |
| 2026-04-27 08:29 | 45.67907 | 2.48979 | 33165 ft | 458 kts | 174° |
| 2026-04-27 08:29 | 45.62657 | 2.50059 | 33167 ft | 458 kts | 174° |
| 2026-04-27 08:30 | 45.56338 | 2.51355 | 33159 ft | 459 kts | 174° |
| 2026-04-27 08:30 | 45.50022 | 2.52648 | 33171 ft | 459 kts | 174° |
| 2026-04-27 08:31 | 45.43695 | 2.53941 | 33173 ft | 459 kts | 174° |
| 2026-04-27 08:31 | 45.37366 | 2.55231 | 33167 ft | 460 kts | 174° |
| 2026-04-27 08:32 | 45.31071 | 2.56510 | 33175 ft | 460 kts | 174° |
| 2026-04-27 08:32 | 45.24725 | 2.57798 | 33177 ft | 460 kts | 174° |
| 2026-04-27 08:33 | 45.18378 | 2.59082 | 33175 ft | 461 kts | 174° |
| 2026-04-27 08:33 | 45.12028 | 2.60365 | 33177 ft | 461 kts | 174° |
| 2026-04-27 08:34 | 45.05668 | 2.61647 | 33184 ft | 461 kts | 174° |
| 2026-04-27 08:34 | 44.99305 | 2.62926 | 33169 ft | 461 kts | 174° |
| 2026-04-27 08:35 | 44.92973 | 2.64196 | 32698 ft | 466 kts | 174° |
| 2026-04-27 08:35 | 44.89768 | 2.64838 | 32015 ft | 464 kts | 174° |
| 2026-04-27 08:35 | 44.86572 | 2.65478 | 31243 ft | 463 kts | 174° |
| 2026-04-27 08:36 | 44.83373 | 2.66117 | 30430 ft | 464 kts | 174° |
| 2026-04-27 08:36 | 44.80184 | 2.66753 | 29472 ft | 465 kts | 173° |
| 2026-04-27 08:36 | 44.76970 | 2.67394 | 28716 ft | 461 kts | 173° |
| 2026-04-27 08:36 | 44.73817 | 2.68024 | 28041 ft | 456 kts | 173° |
| 2026-04-27 08:37 | 44.70692 | 2.68646 | 27406 ft | 450 kts | 173° |
| 2026-04-27 08:37 | 44.67619 | 2.69257 | 26766 ft | 445 kts | 173° |
| 2026-04-27 08:37 | 44.64560 | 2.69864 | 26136 ft | 440 kts | 173° |
| 2026-04-27 08:37 | 44.61535 | 2.70464 | 25521 ft | 436 kts | 173° |
| 2026-04-27 08:38 | 44.58582 | 2.71049 | 24917 ft | 432 kts | 173° |
| 2026-04-27 08:38 | 44.55613 | 2.71636 | 24300 ft | 429 kts | 173° |
| 2026-04-27 08:38 | 44.52668 | 2.72217 | 23683 ft | 426 kts | 173° |
| 2026-04-27 08:38 | 44.49733 | 2.72797 | 22972 ft | 423 kts | 173° |
| 2026-04-27 08:39 | 44.46852 | 2.73365 | 22342 ft | 418 kts | 173° |
| 2026-04-27 08:39 | 44.43967 | 2.73935 | 21729 ft | 414 kts | 173° |
| 2026-04-27 08:39 | 44.41122 | 2.74495 | 21120 ft | 410 kts | 173° |
| 2026-04-27 08:39 | 44.38317 | 2.75046 | 20527 ft | 406 kts | 173° |
| 2026-04-27 08:40 | 44.35567 | 2.75587 | 19943 ft | 402 kts | 173° |
| 2026-04-27 08:40 | 44.32803 | 2.76129 | 19371 ft | 399 kts | 173° |
| 2026-04-27 08:40 | 44.30055 | 2.76669 | 18797 ft | 396 kts | 173° |
| 2026-04-27 08:40 | 44.27344 | 2.77200 | 18159 ft | 394 kts | 173° |
| 2026-04-27 08:41 | 44.24629 | 2.77732 | 17524 ft | 391 kts | 173° |
| 2026-04-27 08:41 | 44.21946 | 2.78256 | 16923 ft | 387 kts | 172° |
| 2026-04-27 08:41 | 44.19286 | 2.78776 | 16349 ft | 383 kts | 172° |
| 2026-04-27 08:41 | 44.16659 | 2.79289 | 15767 ft | 380 kts | 172° |
| 2026-04-27 08:42 | 44.14049 | 2.79797 | 15226 ft | 376 kts | 172° |
| 2026-04-27 08:42 | 44.11457 | 2.80302 | 14666 ft | 374 kts | 172° |
| 2026-04-27 08:42 | 44.08894 | 2.80801 | 14110 ft | 371 kts | 172° |
| 2026-04-27 08:42 | 44.06374 | 2.81291 | 13518 ft | 369 kts | 172° |
| 2026-04-27 08:43 | 44.03837 | 2.81785 | 12938 ft | 366 kts | 172° |
| 2026-04-27 08:43 | 44.01329 | 2.82273 | 12364 ft | 363 kts | 172° |
| 2026-04-27 08:43 | 43.98838 | 2.82757 | 11821 ft | 360 kts | 172° |
| 2026-04-27 08:43 | 43.96361 | 2.83237 | 11276 ft | 357 kts | 172° |
| 2026-04-27 08:44 | 43.93920 | 2.83709 | 10969 ft | 347 kts | 173° |
| 2026-04-27 08:44 | 43.91573 | 2.84163 | 10819 ft | 335 kts | 173° |
| 2026-04-27 08:44 | 43.89307 | 2.84603 | 10680 ft | 323 kts | 173° |
| 2026-04-27 08:44 | 43.87143 | 2.85021 | 10548 ft | 312 kts | 173° |
| 2026-04-27 08:45 | 43.85020 | 2.85432 | 10418 ft | 303 kts | 173° |
| 2026-04-27 08:45 | 43.82965 | 2.85828 | 10302 ft | 294 kts | 173° |
| 2026-04-27 08:45 | 43.80964 | 2.86213 | 10153 ft | 286 kts | 173° |
| 2026-04-27 08:45 | 43.79000 | 2.86592 | 9845 ft | 284 kts | 173° |
| 2026-04-27 08:46 | 43.77058 | 2.87034 | 9556 ft | 283 kts | 166° |
| 2026-04-27 08:46 | 43.75209 | 2.87915 | 9323 ft | 280 kts | 159° |
| 2026-04-27 08:46 | 43.73413 | 2.88954 | 9027 ft | 279 kts | 157° |
| 2026-04-27 08:46 | 43.71634 | 2.90015 | 8719 ft | 278 kts | 157° |
| 2026-04-27 08:47 | 43.69858 | 2.91069 | 8424 ft | 277 kts | 157° |
| 2026-04-27 08:47 | 43.68092 | 2.92103 | 8133 ft | 275 kts | 158° |
| 2026-04-27 08:47 | 43.66330 | 2.93125 | 7844 ft | 274 kts | 158° |
| 2026-04-27 08:47 | 43.64568 | 2.94135 | 7548 ft | 274 kts | 158° |
| 2026-04-27 08:48 | 43.62828 | 2.95129 | 7262 ft | 275 kts | 158° |
| 2026-04-27 08:48 | 43.61054 | 2.96137 | 6949 ft | 275 kts | 158° |
| 2026-04-27 08:48 | 43.59287 | 2.97140 | 6659 ft | 274 kts | 158° |
| 2026-04-27 08:48 | 43.57518 | 2.98140 | 6359 ft | 275 kts | 158° |
| 2026-04-27 08:49 | 43.55746 | 2.99145 | 6044 ft | 275 kts | 158° |
| 2026-04-27 08:49 | 43.53984 | 3.00148 | 5772 ft | 272 kts | 158° |
| 2026-04-27 08:49 | 43.52240 | 3.01146 | 5472 ft | 271 kts | 158° |
| 2026-04-27 08:49 | 43.50492 | 3.02151 | 5052 ft | 275 kts | 158° |
| 2026-04-27 08:50 | 43.48702 | 3.03158 | 4610 ft | 279 kts | 159° |
| 2026-04-27 08:50 | 43.46922 | 3.04138 | 4247 ft | 271 kts | 158° |
| 2026-04-27 08:50 | 43.45197 | 3.05099 | 4029 ft | 265 kts | 159° |
| 2026-04-27 08:50 | 43.43498 | 3.06018 | 3910 ft | 257 kts | 159° |
| 2026-04-27 08:51 | 43.41873 | 3.06928 | 3863 ft | 247 kts | 158° |
| 2026-04-27 08:51 | 43.40331 | 3.07805 | 3793 ft | 240 kts | 158° |
| 2026-04-27 08:51 | 43.38807 | 3.08670 | 3702 ft | 232 kts | 158° |
| 2026-04-27 08:51 | 43.37335 | 3.09507 | 3580 ft | 226 kts | 158° |
| 2026-04-27 08:52 | 43.35883 | 3.10325 | 3358 ft | 224 kts | 158° |
| 2026-04-27 08:52 | 43.34496 | 3.11196 | 3182 ft | 215 kts | 144° |
| 2026-04-27 08:52 | 43.33660 | 3.12811 | 2936 ft | 208 kts | 103° |
| 2026-04-27 08:52 | 43.33587 | 3.14728 | 2794 ft | 197 kts | 92° |
| 2026-04-27 08:53 | 43.33458 | 3.16543 | 2604 ft | 190 kts | 96° |
| 2026-04-27 08:53 | 43.33318 | 3.18335 | 2346 ft | 188 kts | 95° |
| 2026-04-27 08:53 | 43.33198 | 3.20113 | 2105 ft | 185 kts | 95° |
| 2026-04-27 08:53 | 43.33095 | 3.21859 | 1868 ft | 181 kts | 94° |
| 2026-04-27 08:54 | 43.33002 | 3.23532 | 1619 ft | 170 kts | 95° |
| 2026-04-27 08:54 | 43.32915 | 3.25083 | 1439 ft | 155 kts | 94° |
| 2026-04-27 08:54 | 43.32838 | 3.26507 | 1164 ft | 145 kts | 95° |
| 2026-04-27 08:54 | 43.32762 | 3.27865 | 1017 ft | 141 kts | 94° |
| 2026-04-27 08:55 | 43.32689 | 3.29219 | 828 ft | 144 kts | 94° |
| 2026-04-27 08:55 | 43.32609 | 3.30596 | 634 ft | 145 kts | 94° |
| 2026-04-27 08:55 | 43.32530 | 3.31976 | 426 ft | 144 kts | 94° |
| 2026-04-27 08:55 | 43.32453 | 3.33341 | 220 ft | 143 kts | 94° |
| 2026-04-27 08:56 | 43.32378 | 3.34691 | 61 ft | 138 kts | 94° |
| 2026-04-27 08:56 | 43.32316 | 3.35804 | 53 ft | 87 kts | 94° |
| 2026-04-27 08:56 | 43.32285 | 3.36348 | 51 ft | 37 kts | 95° |
| 2026-04-27 08:56 | 43.32271 | 3.36613 | 49 ft | 18 kts | 94° |
| 2026-04-27 08:57 | 43.32255 | 3.36722 | 47 ft | 2 kts | 325° |
| 2026-04-27 08:57 | 43.32269 | 3.36652 | 50 ft | 15 kts | 274° |
| 2026-04-27 08:57 | 43.32279 | 3.36459 | 50 ft | 24 kts | 274° |
| 2026-04-27 08:58 | 43.32293 | 3.36223 | 50 ft | 29 kts | 274° |
| 2026-04-27 08:58 | 43.32309 | 3.35926 | 50 ft | 32 kts | 274° |
| 2026-04-27 08:58 | 43.32326 | 3.35630 | 53 ft | 30 kts | 274° |
| 2026-04-27 08:58 | 43.32336 | 3.35387 | 52 ft | 16 kts | 260° |
| 2026-04-27 08:59 | 43.32261 | 3.35331 | 55 ft | 13 kts | 185° |
| 2026-04-27 08:59 | 43.32174 | 3.35342 | 53 ft | 12 kts | 165° |
| 2026-04-27 08:59 | 43.32139 | 3.35334 | 55 ft | 2 kts | 246° |
| 2026-04-27 08:59 | 43.32146 | 3.35308 | 55 ft | 2 kts | 302° |
| 2026-04-27 09:00 | 43.32149 | 3.35304 | 55 ft | 0 kts | 304° |